createdAt,value
2017-12-16T00:00:38.402Z,995.58
2017-12-16T00:01:38.389Z,995.56
2017-12-16T00:02:38.373Z,995.57
2017-12-16T00:03:38.358Z,995.58
2017-12-16T00:04:38.342Z,995.60
2017-12-16T00:05:38.339Z,995.65
2017-12-16T00:06:38.316Z,995.61
2017-12-16T00:07:38.302Z,995.65
2017-12-16T00:08:38.290Z,995.67
2017-12-16T00:09:38.275Z,995.64
2017-12-16T00:10:38.264Z,995.71
2017-12-16T00:11:38.251Z,995.72
2017-12-16T00:12:39.963Z,995.71
2017-12-16T00:13:38.224Z,995.71
2017-12-16T00:14:38.211Z,995.74
2017-12-16T00:15:38.198Z,995.72
2017-12-16T00:16:38.188Z,995.71
2017-12-16T00:17:38.172Z,995.72
2017-12-16T00:18:38.161Z,995.75
2017-12-16T00:19:38.144Z,995.78
2017-12-16T00:20:39.963Z,995.78
2017-12-16T00:21:38.121Z,995.82
2017-12-16T00:22:38.121Z,995.83
2017-12-16T00:23:38.092Z,995.83
2017-12-16T00:24:38.080Z,995.85
2017-12-16T00:25:38.064Z,995.86
2017-12-16T00:26:38.056Z,995.87
2017-12-16T00:27:38.052Z,995.91
2017-12-16T00:28:38.025Z,995.91
2017-12-16T00:29:38.018Z,995.90
2017-12-16T00:30:38.008Z,995.90
2017-12-16T00:31:37.985Z,995.91
2017-12-16T00:32:37.976Z,995.93
2017-12-16T00:33:37.971Z,995.89
2017-12-16T00:34:37.950Z,995.92
2017-12-16T00:35:37.933Z,995.94
2017-12-16T00:36:37.924Z,995.94
2017-12-16T00:37:37.951Z,995.98
2017-12-16T00:38:37.893Z,995.95
2017-12-16T00:39:37.879Z,995.94
2017-12-16T00:40:37.869Z,995.97
2017-12-16T00:41:37.852Z,995.97
2017-12-16T00:42:37.860Z,995.94
2017-12-16T00:43:37.827Z,995.95
2017-12-16T00:44:37.818Z,995.98
2017-12-16T00:45:37.801Z,996.00
2017-12-16T00:46:37.787Z,996.03
2017-12-16T00:47:37.777Z,996.05
2017-12-16T00:48:37.762Z,996.03
2017-12-16T00:49:37.755Z,995.99
2017-12-16T00:50:37.735Z,996.03
2017-12-16T00:51:37.724Z,996.04
2017-12-16T00:52:37.709Z,996.08
2017-12-16T00:53:37.696Z,996.04
2017-12-16T00:54:37.685Z,996.05
2017-12-16T00:55:37.670Z,996.07
2017-12-16T00:56:37.682Z,996.09
2017-12-16T00:57:37.644Z,996.11
2017-12-16T00:58:37.633Z,996.11
2017-12-16T00:59:37.618Z,996.13
2017-12-16T01:00:37.605Z,996.18
2017-12-16T01:01:37.594Z,996.18
2017-12-16T01:02:37.581Z,996.15
2017-12-16T01:03:37.565Z,996.24
2017-12-16T01:04:37.555Z,996.20
2017-12-16T01:05:37.539Z,996.19
2017-12-16T01:06:37.528Z,996.17
2017-12-16T01:07:37.515Z,996.13
2017-12-16T01:08:37.512Z,996.19
2017-12-16T01:09:37.488Z,996.24
2017-12-16T01:10:37.475Z,996.25
2017-12-16T01:11:37.462Z,996.27
2017-12-16T01:12:37.454Z,996.28
2017-12-16T01:13:37.435Z,996.27
2017-12-16T01:14:37.423Z,996.29
2017-12-16T01:15:37.413Z,996.29
2017-12-16T01:16:37.397Z,996.27
2017-12-16T01:17:37.385Z,996.33
2017-12-16T01:18:37.372Z,996.31
2017-12-16T01:19:37.365Z,996.31
2017-12-16T01:20:37.349Z,996.30
2017-12-16T01:21:37.336Z,996.32
2017-12-16T01:22:37.320Z,996.32
2017-12-16T01:23:37.311Z,996.34
2017-12-16T01:24:37.299Z,996.31
2017-12-16T01:25:37.283Z,996.35
2017-12-16T01:26:37.272Z,996.35
2017-12-16T01:27:37.255Z,996.34
2017-12-16T01:28:37.268Z,996.33
2017-12-16T01:29:37.233Z,996.37
2017-12-16T01:30:37.217Z,996.39
2017-12-16T01:31:37.228Z,996.40
2017-12-16T01:32:37.193Z,996.43
2017-12-16T01:33:38.975Z,996.47
2017-12-16T01:34:37.166Z,996.49
2017-12-16T01:35:37.170Z,996.45
2017-12-16T01:36:37.139Z,996.49
2017-12-16T01:37:37.128Z,996.55
2017-12-16T01:38:38.963Z,996.53
2017-12-16T01:39:37.101Z,996.60
2017-12-16T01:40:37.093Z,996.58
2017-12-16T01:41:37.075Z,996.56
2017-12-16T01:42:37.066Z,996.57
2017-12-16T01:43:37.052Z,996.58
2017-12-16T01:44:37.037Z,996.53
2017-12-16T01:45:37.026Z,996.53
2017-12-16T01:46:37.012Z,996.54
2017-12-16T01:47:37.002Z,996.55
2017-12-16T01:48:36.987Z,996.55
2017-12-16T01:49:36.973Z,996.59
2017-12-16T01:50:36.963Z,996.59
2017-12-16T01:51:36.958Z,996.65
2017-12-16T01:52:36.938Z,996.64
2017-12-16T01:53:36.922Z,996.67
2017-12-16T01:54:36.907Z,996.71
2017-12-16T01:55:36.895Z,996.70
2017-12-16T01:56:36.885Z,996.73
2017-12-16T01:57:36.869Z,996.73
2017-12-16T01:58:36.860Z,996.75
2017-12-16T01:59:36.848Z,996.73
2017-12-16T02:00:36.832Z,996.79
2017-12-16T02:01:36.819Z,996.78
2017-12-16T02:02:57.827Z,996.80
2017-12-16T02:03:36.791Z,996.84
2017-12-16T02:04:36.779Z,996.84
2017-12-16T02:05:36.765Z,996.83
2017-12-16T02:06:36.755Z,996.85
2017-12-16T02:07:36.739Z,996.90
2017-12-16T02:08:36.732Z,996.85
2017-12-16T02:09:36.728Z,996.88
2017-12-16T02:10:38.467Z,996.92
2017-12-16T02:11:36.693Z,996.91
2017-12-16T02:12:36.675Z,996.90
2017-12-16T02:13:36.672Z,996.89
2017-12-16T02:14:36.649Z,996.86
2017-12-16T02:15:36.635Z,996.84
2017-12-16T02:16:36.624Z,996.85
2017-12-16T02:17:36.612Z,996.86
2017-12-16T02:18:36.602Z,996.85
2017-12-16T02:19:36.584Z,996.87
2017-12-16T02:20:36.567Z,996.87
2017-12-16T02:21:36.560Z,996.93
2017-12-16T02:22:36.545Z,996.91
2017-12-16T02:23:36.534Z,996.90
2017-12-16T02:24:36.519Z,996.89
2017-12-16T02:25:36.504Z,996.91
2017-12-16T02:26:36.491Z,996.90
2017-12-16T02:27:38.463Z,996.98
2017-12-16T02:28:36.477Z,996.96
2017-12-16T02:29:36.454Z,996.99
2017-12-16T02:30:36.443Z,997.02
2017-12-16T02:31:36.429Z,996.99
2017-12-16T02:32:36.414Z,996.98
2017-12-16T02:33:36.401Z,996.98
2017-12-16T02:34:36.387Z,996.99
2017-12-16T02:35:36.374Z,997.02
2017-12-16T02:36:36.361Z,997.03
2017-12-16T02:37:36.348Z,997.05
2017-12-16T02:38:36.349Z,997.05
2017-12-16T02:39:36.328Z,997.01
2017-12-16T02:40:36.308Z,996.97
2017-12-16T02:41:36.297Z,996.97
2017-12-16T02:42:36.284Z,996.96
2017-12-16T02:43:36.290Z,996.93
2017-12-16T02:44:36.258Z,996.95
2017-12-16T02:45:36.243Z,997.00
2017-12-16T02:46:36.231Z,996.99
2017-12-16T02:47:36.218Z,997.02
2017-12-16T02:48:36.208Z,997.03
2017-12-16T02:49:36.191Z,997.08
2017-12-16T02:50:36.179Z,997.08
2017-12-16T02:51:36.166Z,997.11
2017-12-16T02:52:36.153Z,997.14
2017-12-16T02:53:36.143Z,997.10
2017-12-16T02:54:36.127Z,997.15
2017-12-16T02:55:36.113Z,997.18
2017-12-16T02:56:36.104Z,997.16
2017-12-16T02:57:36.088Z,997.16
2017-12-16T02:58:36.075Z,997.20
2017-12-16T02:59:36.062Z,997.20
2017-12-16T03:00:36.054Z,997.21
2017-12-16T03:01:36.039Z,997.18
2017-12-16T03:02:36.024Z,997.23
2017-12-16T03:03:36.009Z,997.22
2017-12-16T03:04:35.998Z,997.23
2017-12-16T03:05:35.990Z,997.27
2017-12-16T03:06:35.972Z,997.29
2017-12-16T03:07:35.964Z,997.31
2017-12-16T03:08:35.949Z,997.33
2017-12-16T03:09:35.931Z,997.36
2017-12-16T03:10:35.921Z,997.35
2017-12-16T03:11:35.915Z,997.36
2017-12-16T03:12:35.893Z,997.39
2017-12-16T03:13:35.879Z,997.41
2017-12-16T03:14:35.867Z,997.39
2017-12-16T03:15:35.857Z,997.42
2017-12-16T03:16:35.854Z,997.44
2017-12-16T03:17:35.832Z,997.40
2017-12-16T03:18:35.817Z,997.44
2017-12-16T03:19:35.802Z,997.42
2017-12-16T03:20:35.795Z,997.47
2017-12-16T03:21:35.795Z,997.51
2017-12-16T03:22:35.769Z,997.59
2017-12-16T03:23:35.751Z,997.59
2017-12-16T03:24:35.738Z,997.59
2017-12-16T03:25:35.724Z,997.60
2017-12-16T03:26:35.711Z,997.54
2017-12-16T03:27:35.700Z,997.57
2017-12-16T03:28:35.708Z,997.58
2017-12-16T03:29:35.672Z,997.57
2017-12-16T03:30:35.666Z,997.61
2017-12-16T03:31:35.645Z,997.59
2017-12-16T03:32:35.635Z,997.61
2017-12-16T03:33:35.621Z,997.64
2017-12-16T03:34:35.609Z,997.63
2017-12-16T03:35:35.596Z,997.68
2017-12-16T03:36:35.582Z,997.67
2017-12-16T03:37:35.569Z,997.71
2017-12-16T03:38:35.557Z,997.69
2017-12-16T03:39:35.545Z,997.71
2017-12-16T03:40:35.546Z,997.71
2017-12-16T03:41:35.519Z,997.67
2017-12-16T03:42:35.507Z,997.70
2017-12-16T03:43:35.508Z,997.70
2017-12-16T03:44:35.480Z,997.75
2017-12-16T03:45:35.467Z,997.70
2017-12-16T03:46:35.455Z,997.73
2017-12-16T03:47:35.442Z,997.73
2017-12-16T03:48:35.428Z,997.73
2017-12-16T03:49:35.416Z,997.76
2017-12-16T03:50:35.402Z,997.76
2017-12-16T03:51:35.395Z,997.76
2017-12-16T03:52:35.383Z,997.83
2017-12-16T03:53:35.370Z,997.78
2017-12-16T03:54:35.352Z,997.80
2017-12-16T03:55:35.338Z,997.83
2017-12-16T03:56:35.331Z,997.84
2017-12-16T03:57:35.313Z,997.86
2017-12-16T03:58:35.301Z,997.84
2017-12-16T03:59:35.288Z,997.88
2017-12-16T04:00:35.274Z,997.89
2017-12-16T04:01:35.261Z,997.93
2017-12-16T04:02:35.249Z,997.92
2017-12-16T04:03:35.235Z,997.92
2017-12-16T04:04:35.223Z,997.92
2017-12-16T04:05:35.209Z,997.94
2017-12-16T04:06:35.202Z,997.92
2017-12-16T04:07:35.183Z,997.94
2017-12-16T04:08:35.175Z,997.95
2017-12-16T04:09:35.156Z,997.94
2017-12-16T04:10:35.150Z,997.95
2017-12-16T04:11:35.132Z,997.96
2017-12-16T04:12:35.121Z,997.95
2017-12-16T04:13:35.107Z,997.99
2017-12-16T04:14:35.093Z,997.98
2017-12-16T04:15:35.079Z,997.96
2017-12-16T04:16:35.067Z,997.94
2017-12-16T04:17:35.054Z,997.90
2017-12-16T04:18:35.041Z,997.92
2017-12-16T04:19:35.030Z,997.90
2017-12-16T04:20:35.019Z,997.90
2017-12-16T04:21:35.002Z,997.91
2017-12-16T04:22:34.992Z,997.94
2017-12-16T04:23:34.976Z,997.94
2017-12-16T04:24:34.962Z,997.94
2017-12-16T04:25:34.952Z,997.91
2017-12-16T04:26:34.945Z,997.92
2017-12-16T04:27:34.926Z,997.93
2017-12-16T04:28:34.921Z,997.92
2017-12-16T04:29:34.902Z,997.98
2017-12-16T04:30:34.887Z,997.94
2017-12-16T04:31:34.873Z,997.96
2017-12-16T04:32:34.858Z,997.96
2017-12-16T04:33:34.852Z,997.99
2017-12-16T04:34:34.845Z,998.00
2017-12-16T04:35:34.821Z,997.99
2017-12-16T04:36:34.811Z,998.01
2017-12-16T04:37:34.796Z,998.00
2017-12-16T04:38:34.789Z,998.00
2017-12-16T04:39:34.774Z,998.02
2017-12-16T04:40:34.757Z,998.01
2017-12-16T04:41:34.742Z,998.03
2017-12-16T04:42:34.732Z,998.00
2017-12-16T04:43:34.717Z,998.03
2017-12-16T04:44:34.707Z,998.02
2017-12-16T04:45:34.696Z,997.98
2017-12-16T04:46:34.678Z,998.01
2017-12-16T04:47:34.668Z,998.03
2017-12-16T04:48:34.653Z,998.03
2017-12-16T04:49:34.639Z,998.08
2017-12-16T04:50:34.638Z,998.12
2017-12-16T04:51:34.615Z,998.10
2017-12-16T04:52:34.602Z,998.13
2017-12-16T04:53:34.589Z,998.13
2017-12-16T04:54:34.580Z,998.15
2017-12-16T04:55:34.565Z,998.15
2017-12-16T04:56:34.551Z,998.15
2017-12-16T04:57:34.538Z,998.12
2017-12-16T04:58:34.534Z,998.13
2017-12-16T04:59:34.512Z,998.13
2017-12-16T05:00:34.508Z,998.13
2017-12-16T05:01:34.510Z,998.14
2017-12-16T05:02:34.505Z,998.10
2017-12-16T05:03:34.505Z,998.13
2017-12-16T05:04:34.455Z,998.12
2017-12-16T05:05:34.456Z,998.16
2017-12-16T05:06:34.483Z,998.16
2017-12-16T05:07:34.429Z,998.17
2017-12-16T05:08:34.422Z,998.13
2017-12-16T05:09:34.391Z,998.15
2017-12-16T05:10:34.401Z,998.17
2017-12-16T05:11:34.426Z,998.23
2017-12-16T05:12:34.351Z,998.20
2017-12-16T05:13:34.389Z,998.23
2017-12-16T05:14:34.379Z,998.21
2017-12-16T05:15:34.306Z,998.20
2017-12-16T05:16:34.357Z,998.17
2017-12-16T05:17:34.318Z,998.16
2017-12-16T05:18:34.340Z,998.19
2017-12-16T05:19:34.292Z,998.21
2017-12-16T05:20:34.248Z,998.19
2017-12-16T05:21:34.227Z,998.22
2017-12-16T05:22:34.252Z,998.21
2017-12-16T05:23:34.294Z,998.25
2017-12-16T05:24:34.204Z,998.25
2017-12-16T05:25:34.207Z,998.32
2017-12-16T05:26:34.164Z,998.33
2017-12-16T05:27:34.174Z,998.40
2017-12-16T05:28:34.144Z,998.39
2017-12-16T05:29:34.126Z,998.38
2017-12-16T05:30:34.128Z,998.44
2017-12-16T05:31:34.106Z,998.43
2017-12-16T05:32:34.090Z,998.46
2017-12-16T05:33:34.073Z,998.45
2017-12-16T05:34:34.061Z,998.44
2017-12-16T05:35:34.051Z,998.43
2017-12-16T05:36:34.036Z,998.45
2017-12-16T05:37:34.023Z,998.50
2017-12-16T05:38:34.015Z,998.46
2017-12-16T05:39:34.001Z,998.47
2017-12-16T05:40:33.980Z,998.44
2017-12-16T05:41:33.969Z,998.45
2017-12-16T05:42:33.954Z,998.43
2017-12-16T05:43:33.948Z,998.44
2017-12-16T05:44:33.929Z,998.42
2017-12-16T05:45:33.915Z,998.50
2017-12-16T05:46:33.939Z,998.48
2017-12-16T05:47:33.891Z,998.53
2017-12-16T05:48:33.875Z,998.57
2017-12-16T05:49:33.861Z,998.57
2017-12-16T05:50:33.852Z,998.60
2017-12-16T05:51:33.836Z,998.59
2017-12-16T05:52:33.824Z,998.60
2017-12-16T05:53:33.809Z,998.54
2017-12-16T05:54:33.798Z,998.55
2017-12-16T05:55:33.783Z,998.61
2017-12-16T05:56:33.773Z,998.60
2017-12-16T05:57:33.759Z,998.61
2017-12-16T05:58:33.744Z,998.66
2017-12-16T05:59:33.732Z,998.70
2017-12-16T06:00:33.718Z,998.69
2017-12-16T06:01:33.704Z,998.63
2017-12-16T06:02:33.692Z,998.67
2017-12-16T06:03:33.681Z,998.67
2017-12-16T06:04:33.667Z,998.69
2017-12-16T06:05:33.653Z,998.65
2017-12-16T06:06:33.639Z,998.69
2017-12-16T06:07:33.634Z,998.69
2017-12-16T06:08:33.614Z,998.69
2017-12-16T06:09:33.605Z,998.72
2017-12-16T06:10:33.587Z,998.71
2017-12-16T06:11:33.574Z,998.75
2017-12-16T06:12:33.564Z,998.75
2017-12-16T06:13:33.547Z,998.74
2017-12-16T06:14:33.536Z,998.73
2017-12-16T06:15:35.464Z,998.69
2017-12-16T06:16:33.512Z,998.71
2017-12-16T06:17:33.503Z,998.70
2017-12-16T06:18:33.484Z,998.72
2017-12-16T06:19:33.470Z,998.77
2017-12-16T06:20:33.458Z,998.76
2017-12-16T06:21:33.444Z,998.76
2017-12-16T06:22:33.430Z,998.82
2017-12-16T06:23:33.418Z,998.81
2017-12-16T06:24:33.405Z,998.81
2017-12-16T06:25:33.393Z,998.85
2017-12-16T06:26:33.381Z,998.86
2017-12-16T06:27:33.366Z,998.85
2017-12-16T06:28:33.360Z,998.89
2017-12-16T06:29:33.360Z,998.88
2017-12-16T06:30:33.328Z,998.88
2017-12-16T06:31:33.313Z,998.90
2017-12-16T06:32:33.300Z,998.91
2017-12-16T06:33:33.287Z,998.95
2017-12-16T06:34:33.277Z,998.92
2017-12-16T06:35:33.259Z,998.94
2017-12-16T06:36:33.247Z,998.93
2017-12-16T06:37:33.238Z,998.94
2017-12-16T06:38:33.220Z,998.97
2017-12-16T06:39:33.221Z,998.99
2017-12-16T06:40:33.194Z,998.99
2017-12-16T06:41:33.183Z,999.03
2017-12-16T06:42:33.168Z,999.03
2017-12-16T06:43:33.153Z,999.00
2017-12-16T06:44:33.148Z,999.01
2017-12-16T06:45:33.127Z,999.03
2017-12-16T06:46:33.114Z,999.05
2017-12-16T06:47:33.100Z,999.07
2017-12-16T06:48:33.097Z,999.09
2017-12-16T06:49:33.084Z,999.11
2017-12-16T06:50:33.067Z,999.11
2017-12-16T06:51:33.048Z,999.11
2017-12-16T06:52:33.035Z,999.13
2017-12-16T06:53:33.028Z,999.15
2017-12-16T06:54:33.008Z,999.17
2017-12-16T06:55:33.031Z,999.23
2017-12-16T06:56:32.981Z,999.29
2017-12-16T06:57:32.971Z,999.27
2017-12-16T06:58:32.965Z,999.28
2017-12-16T06:59:32.955Z,999.31
2017-12-16T07:00:32.927Z,999.31
2017-12-16T07:01:32.913Z,999.29
2017-12-16T07:02:32.900Z,999.30
2017-12-16T07:03:32.887Z,999.31
2017-12-16T07:04:32.872Z,999.27
2017-12-16T07:05:32.859Z,999.27
2017-12-16T07:06:32.846Z,999.28
2017-12-16T07:07:32.832Z,999.30
2017-12-16T07:08:32.820Z,999.34
2017-12-16T07:09:32.805Z,999.37
2017-12-16T07:10:32.791Z,999.33
2017-12-16T07:11:32.778Z,999.32
2017-12-16T07:12:32.766Z,999.33
2017-12-16T07:13:32.752Z,999.36
2017-12-16T07:14:32.739Z,999.37
2017-12-16T07:15:32.726Z,999.40
2017-12-16T07:16:32.720Z,999.46
2017-12-16T07:17:32.699Z,999.51
2017-12-16T07:18:32.690Z,999.55
2017-12-16T07:19:32.669Z,999.57
2017-12-16T07:20:32.657Z,999.58
2017-12-16T07:21:32.642Z,999.58
2017-12-16T07:22:32.633Z,999.65
2017-12-16T07:23:32.615Z,999.60
2017-12-16T07:24:32.602Z,999.69
2017-12-16T07:25:32.588Z,999.71
2017-12-16T07:26:32.572Z,999.70
2017-12-16T07:27:32.563Z,999.75
2017-12-16T07:28:32.550Z,999.70
2017-12-16T07:29:32.533Z,999.74
2017-12-16T07:30:32.521Z,999.74
2017-12-16T07:31:32.568Z,999.75
2017-12-16T07:32:32.496Z,999.79
2017-12-16T07:33:32.489Z,999.79
2017-12-16T07:34:32.465Z,999.78
2017-12-16T07:35:32.497Z,999.81
2017-12-16T07:36:32.467Z,999.79
2017-12-16T07:37:32.424Z,999.87
2017-12-16T07:38:32.444Z,999.91
2017-12-16T07:39:32.404Z,999.90
2017-12-16T07:40:32.388Z,999.91
2017-12-16T07:41:32.368Z,999.95
2017-12-16T07:42:32.355Z,999.94
2017-12-16T07:43:32.343Z,999.94
2017-12-16T07:44:32.328Z,999.99
2017-12-16T07:45:32.318Z,999.98
2017-12-16T07:46:32.301Z,999.97
2017-12-16T07:47:32.288Z,999.98
2017-12-16T07:48:32.273Z,1000.00
2017-12-16T07:49:32.260Z,999.99
2017-12-16T07:50:32.249Z,999.99
2017-12-16T07:51:32.232Z,1000.04
2017-12-16T07:52:32.220Z,1000.05
2017-12-16T07:53:32.227Z,1000.10
2017-12-16T07:54:32.193Z,1000.07
2017-12-16T07:55:32.179Z,1000.10
2017-12-16T07:56:32.167Z,1000.07
2017-12-16T07:57:32.150Z,1000.06
2017-12-16T07:58:32.142Z,1000.11
2017-12-16T07:59:32.149Z,1000.12
2017-12-16T08:00:32.116Z,1000.12
2017-12-16T08:01:32.095Z,1000.18
2017-12-16T08:02:32.085Z,1000.17
2017-12-16T08:03:32.069Z,1000.21
2017-12-16T08:04:32.055Z,1000.22
2017-12-16T08:05:32.054Z,1000.25
2017-12-16T08:06:32.026Z,1000.31
2017-12-16T08:07:32.019Z,1000.32
2017-12-16T08:08:32.012Z,1000.33
2017-12-16T08:09:31.987Z,1000.35
2017-12-16T08:10:31.973Z,1000.34
2017-12-16T08:11:31.959Z,1000.42
2017-12-16T08:12:31.946Z,1000.41
2017-12-16T08:13:31.936Z,1000.34
2017-12-16T08:14:31.920Z,1000.40
2017-12-16T08:15:31.908Z,1000.38
2017-12-16T08:16:31.893Z,1000.40
2017-12-16T08:17:33.463Z,1000.47
2017-12-16T08:18:31.864Z,1000.47
2017-12-16T08:19:31.852Z,1000.50
2017-12-16T08:20:31.840Z,1000.49
2017-12-16T08:21:31.824Z,1000.51
2017-12-16T08:22:31.814Z,1000.49
2017-12-16T08:23:31.804Z,1000.55
2017-12-16T08:24:31.790Z,1000.50
2017-12-16T08:25:31.773Z,1000.51
2017-12-16T08:26:31.759Z,1000.54
2017-12-16T08:27:31.747Z,1000.54
2017-12-16T08:28:31.739Z,1000.55
2017-12-16T08:29:31.720Z,1000.54
2017-12-16T08:30:31.708Z,1000.57
2017-12-16T08:31:31.704Z,1000.54
2017-12-16T08:32:31.682Z,1000.52
2017-12-16T08:33:31.679Z,1000.55
2017-12-16T08:34:31.668Z,1000.57
2017-12-16T08:35:31.644Z,1000.58
2017-12-16T08:36:31.630Z,1000.56
2017-12-16T08:37:31.624Z,1000.60
2017-12-16T08:38:31.604Z,1000.66
2017-12-16T08:39:31.593Z,1000.66
2017-12-16T08:40:31.581Z,1000.71
2017-12-16T08:41:31.568Z,1000.70
2017-12-16T08:42:31.555Z,1000.73
2017-12-16T08:43:31.543Z,1000.74
2017-12-16T08:44:31.531Z,1000.74
2017-12-16T08:45:31.521Z,1000.77
2017-12-16T08:46:31.508Z,1000.78
2017-12-16T08:47:31.499Z,1000.88
2017-12-16T08:48:31.485Z,1000.83
2017-12-16T08:49:31.476Z,1000.88
2017-12-16T08:50:31.458Z,1000.90
2017-12-16T08:51:31.449Z,1000.90
2017-12-16T08:52:31.437Z,1000.93
2017-12-16T08:53:31.424Z,1000.91
2017-12-16T08:54:31.413Z,1000.93
2017-12-16T08:55:31.439Z,1000.98
2017-12-16T08:56:31.394Z,1001.01
2017-12-16T08:57:31.380Z,1001.02
2017-12-16T08:58:31.370Z,1000.98
2017-12-16T08:59:31.361Z,1001.01
2017-12-16T09:00:31.350Z,1001.03
2017-12-16T09:01:31.338Z,1001.02
2017-12-16T09:02:31.328Z,1001.00
2017-12-16T09:03:31.319Z,1001.05
2017-12-16T09:04:31.310Z,1001.05
2017-12-16T09:05:31.298Z,1001.11
2017-12-16T09:06:31.290Z,1001.07
2017-12-16T09:07:31.286Z,1001.14
2017-12-16T09:08:31.273Z,1001.11
2017-12-16T09:09:31.260Z,1001.19
2017-12-16T09:10:31.251Z,1001.23
2017-12-16T09:11:31.247Z,1001.20
2017-12-16T09:12:31.235Z,1001.27
2017-12-16T09:13:31.292Z,1001.30
2017-12-16T09:14:31.214Z,1001.32
2017-12-16T09:15:31.207Z,1001.32
2017-12-16T09:16:31.196Z,1001.34
2017-12-16T09:17:31.187Z,1001.33
2017-12-16T09:18:31.178Z,1001.36
2017-12-16T09:19:31.169Z,1001.32
2017-12-16T09:20:31.165Z,1001.38
2017-12-16T09:21:31.155Z,1001.35
2017-12-16T09:22:31.144Z,1001.39
2017-12-16T09:23:31.136Z,1001.40
2017-12-16T09:24:31.128Z,1001.37
2017-12-16T09:25:31.165Z,1001.40
2017-12-16T09:26:31.110Z,1001.40
2017-12-16T09:27:31.112Z,1001.46
2017-12-16T09:28:31.095Z,1001.50
2017-12-16T09:29:31.087Z,1001.52
2017-12-16T09:30:31.080Z,1001.52
2017-12-16T09:31:31.074Z,1001.53
2017-12-16T09:32:31.074Z,1001.58
2017-12-16T09:33:31.056Z,1001.57
2017-12-16T09:34:31.058Z,1001.63
2017-12-16T09:35:31.042Z,1001.60
2017-12-16T09:36:31.054Z,1001.66
2017-12-16T09:37:31.031Z,1001.67
2017-12-16T09:38:31.020Z,1001.73
2017-12-16T09:39:31.013Z,1001.68
2017-12-16T09:40:31.006Z,1001.70
2017-12-16T09:41:31.001Z,1001.69
2017-12-16T09:42:30.999Z,1001.69
2017-12-16T09:43:30.986Z,1001.71
2017-12-16T09:44:30.979Z,1001.72
2017-12-16T09:45:30.971Z,1001.79
2017-12-16T09:46:30.973Z,1001.76
2017-12-16T09:47:30.957Z,1001.73
2017-12-16T09:48:30.970Z,1001.80
2017-12-16T09:49:30.946Z,1001.75
2017-12-16T09:50:30.938Z,1001.75
2017-12-16T09:51:30.931Z,1001.81
2017-12-16T09:52:30.927Z,1001.77
2017-12-16T09:53:30.922Z,1001.77
2017-12-16T09:54:30.927Z,1001.86
2017-12-16T09:55:30.905Z,1001.85
2017-12-16T09:56:30.901Z,1001.93
2017-12-16T09:57:30.892Z,1001.90
2017-12-16T09:58:30.888Z,1001.91
2017-12-16T09:59:30.882Z,1001.93
2017-12-16T10:00:30.883Z,1001.99
2017-12-16T10:01:30.866Z,1001.97
2017-12-16T10:02:30.879Z,1001.91
2017-12-16T10:03:30.857Z,1001.99
2017-12-16T10:04:30.848Z,1002.04
2017-12-16T10:05:30.845Z,1001.99
2017-12-16T10:06:30.847Z,1001.99
2017-12-16T10:07:30.832Z,1001.99
2017-12-16T10:08:30.828Z,1001.96
2017-12-16T10:09:30.820Z,1001.98
2017-12-16T10:10:30.824Z,1001.93
2017-12-16T10:11:30.806Z,1001.93
2017-12-16T10:12:30.803Z,1001.91
2017-12-16T10:13:30.798Z,1001.93
2017-12-16T10:14:30.788Z,1001.95
2017-12-16T10:15:30.782Z,1001.93
2017-12-16T10:16:30.776Z,1001.93
2017-12-16T10:17:30.768Z,1001.97
2017-12-16T10:18:30.765Z,1001.98
2017-12-16T10:19:30.755Z,1001.98
2017-12-16T10:20:30.753Z,1001.98
2017-12-16T10:21:30.750Z,1002.00
2017-12-16T10:22:32.487Z,1002.00
2017-12-16T10:23:30.731Z,1001.97
2017-12-16T10:24:30.723Z,1001.97
2017-12-16T10:25:30.715Z,1002.00
2017-12-16T10:26:30.709Z,1001.97
2017-12-16T10:27:30.704Z,1002.01
2017-12-16T10:28:30.696Z,1002.04
2017-12-16T10:29:30.687Z,1002.03
2017-12-16T10:30:30.680Z,1002.04
2017-12-16T10:31:30.672Z,1002.05
2017-12-16T10:32:30.687Z,1002.02
2017-12-16T10:33:30.656Z,1002.06
2017-12-16T10:34:30.648Z,1002.09
2017-12-16T10:35:30.641Z,1002.09
2017-12-16T10:36:30.632Z,1002.05
2017-12-16T10:37:30.624Z,1002.09
2017-12-16T10:38:30.615Z,1002.03
2017-12-16T10:39:30.628Z,1002.03
2017-12-16T10:40:30.599Z,1002.03
2017-12-16T10:41:30.591Z,1002.06
2017-12-16T10:42:30.607Z,1002.03
2017-12-16T10:43:30.573Z,1002.03
2017-12-16T10:44:30.565Z,1001.98
2017-12-16T10:45:30.560Z,1001.99
2017-12-16T10:46:30.548Z,1002.02
2017-12-16T10:47:30.540Z,1002.01
2017-12-16T10:48:30.531Z,1002.06
2017-12-16T10:49:30.521Z,1002.06
2017-12-16T10:50:30.514Z,1002.09
2017-12-16T10:51:30.506Z,1002.07
2017-12-16T10:52:30.499Z,1002.03
2017-12-16T10:53:30.484Z,1002.10
2017-12-16T10:54:30.477Z,1002.13
2017-12-16T10:55:30.465Z,1002.14
2017-12-16T10:56:30.456Z,1002.14
2017-12-16T10:57:30.445Z,1002.14
2017-12-16T10:58:30.438Z,1002.14
2017-12-16T10:59:30.431Z,1002.12
2017-12-16T11:00:30.420Z,1002.14
2017-12-16T11:01:30.410Z,1002.23
2017-12-16T11:02:30.413Z,1002.19
2017-12-16T11:03:30.400Z,1002.24
2017-12-16T11:04:30.382Z,1002.25
2017-12-16T11:05:30.373Z,1002.23
2017-12-16T11:06:30.369Z,1002.28
2017-12-16T11:07:30.355Z,1002.25
2017-12-16T11:08:30.340Z,1002.29
2017-12-16T11:09:30.332Z,1002.29
2017-12-16T11:10:30.324Z,1002.28
2017-12-16T11:11:30.312Z,1002.31
2017-12-16T11:12:30.305Z,1002.33
2017-12-16T11:13:30.294Z,1002.32
2017-12-16T11:14:30.289Z,1002.40
2017-12-16T11:15:30.278Z,1002.37
2017-12-16T11:16:30.267Z,1002.40
2017-12-16T11:17:30.256Z,1002.43
2017-12-16T11:18:30.250Z,1002.40
2017-12-16T11:19:30.240Z,1002.42
2017-12-16T11:20:30.236Z,1002.45
2017-12-16T11:21:30.224Z,1002.44
2017-12-16T11:22:30.219Z,1002.56
2017-12-16T11:23:30.218Z,1002.46
2017-12-16T11:24:30.205Z,1002.47
2017-12-16T11:25:30.201Z,1002.54
2017-12-16T11:26:30.189Z,1002.53
2017-12-16T11:27:30.205Z,1002.55
2017-12-16T11:28:30.180Z,1002.61
2017-12-16T11:29:30.170Z,1002.54
2017-12-16T11:30:30.166Z,1002.57
2017-12-16T11:31:30.160Z,1002.57
2017-12-16T11:32:30.150Z,1002.53
2017-12-16T11:33:30.148Z,1002.52
2017-12-16T11:34:30.147Z,1002.52
2017-12-16T11:35:30.136Z,1002.51
2017-12-16T11:36:30.125Z,1002.53
2017-12-16T11:37:30.134Z,1002.50
2017-12-16T11:38:30.122Z,1002.46
2017-12-16T11:39:30.112Z,1002.46
2017-12-16T11:40:30.104Z,1002.45
2017-12-16T11:41:30.098Z,1002.48
2017-12-16T11:42:30.106Z,1002.46
2017-12-16T11:43:30.086Z,1002.47
2017-12-16T11:44:30.076Z,1002.49
2017-12-16T11:45:30.077Z,1002.50
2017-12-16T11:46:30.070Z,1002.47
2017-12-16T11:47:30.058Z,1002.46
2017-12-16T11:48:30.050Z,1002.38
2017-12-16T11:49:30.046Z,1002.49
2017-12-16T11:50:30.047Z,1002.48
2017-12-16T11:51:30.034Z,1002.51
2017-12-16T11:52:30.026Z,1002.52
2017-12-16T11:53:30.017Z,1002.51
2017-12-16T11:54:30.011Z,1002.53
2017-12-16T11:55:30.011Z,1002.54
2017-12-16T11:56:30.000Z,1002.58
2017-12-16T11:57:30.017Z,1002.51
2017-12-16T11:58:29.984Z,1002.58
2017-12-16T11:59:29.978Z,1002.54
2017-12-16T12:00:29.976Z,1002.59
2017-12-16T12:01:29.964Z,1002.52
2017-12-16T12:02:29.958Z,1002.58
2017-12-16T12:03:29.956Z,1002.57
2017-12-16T12:04:29.948Z,1002.58
2017-12-16T12:05:29.966Z,1002.58
2017-12-16T12:06:29.930Z,1002.56
2017-12-16T12:07:30.687Z,1002.61
2017-12-16T12:08:29.913Z,1002.55
2017-12-16T12:09:29.904Z,1002.54
2017-12-16T12:10:29.897Z,1002.56
2017-12-16T12:11:29.889Z,1002.51
2017-12-16T12:12:29.888Z,1002.55
2017-12-16T12:13:29.873Z,1002.58
2017-12-16T12:14:29.865Z,1002.52
2017-12-16T12:15:29.866Z,1002.56
2017-12-16T12:16:29.850Z,1002.56
2017-12-16T12:17:29.839Z,1002.54
2017-12-16T12:18:29.831Z,1002.56
2017-12-16T12:19:29.824Z,1002.58
2017-12-16T12:20:29.819Z,1002.59